Time;durP1;ratioP1;P1;durP2;ratioP2;P2;SDS_P1;SDS_P2;PMS_P1;PMS_P2;Temp;Humidity;BMP_temperature;BMP_pressure;BME280_temperature;BME280_humidity;BME280_pressure;Samples;Min_cycle;Max_cycle;Signal;HPM_P1;HPM_P2
2021/12/19 00:01:14;;;;;;;4.23;2.47;;;;;;;1.14;81.26;99189.16;4973792;28;20300;-63
2021/12/19 00:09:00;;;;;;;1.63;1.53;;;;;;;1.31;80.87;99213.84;4973698;28;20269;-64
2021/12/19 00:11:26;;;;;;;3.30;2.37;;;;;;;1.20;80.62;99191.22;4973635;28;20294;-64
2021/12/19 00:13:53;;;;;;;1.53;1.40;;;;;;;1.30;80.25;99215.63;4973864;28;20274;-63
2021/12/19 00:16:20;;;;;;;1.50;1.40;;;;;;;1.23;80.64;99204.06;4973555;28;20298;-65
2021/12/19 00:18:47;;;;;;;1.40;1.30;;;;;;;1.23;80.82;99197.00;4973582;28;20365;-62
2021/12/19 00:21:17;;;;;;;1.87;1.50;;;;;;;1.21;81.11;99203.38;4973455;28;20278;-64
2021/12/19 00:23:45;;;;;;;3.87;1.57;;;;;;;1.20;81.14;99192.06;4973653;28;20270;-64
2021/12/19 00:26:12;;;;;;;1.83;1.57;;;;;;;1.28;81.06;99209.69;4973803;28;20282;-62
2021/12/19 00:28:39;;;;;;;3.90;1.63;;;;;;;1.27;81.63;99209.84;4972786;28;20329;-62
2021/12/19 00:31:06;;;;;;;1.50;1.40;;;;;;;1.30;81.36;99201.69;4973297;28;20365;-63
2021/12/19 00:33:32;;;;;;;1.93;1.60;;;;;;;1.35;81.56;99210.78;4973135;28;20305;-62
2021/12/19 00:35:58;;;;;;;2.50;1.50;;;;;;;1.27;81.71;99194.94;4973405;28;20761;-62
2021/12/19 00:38:25;;;;;;;2.67;1.80;;;;;;;1.10;81.63;99170.25;4973431;28;20039;-63
2021/12/19 00:40:50;;;;;;;3.20;2.93;;;;;;;1.29;81.66;99192.16;4973315;28;20270;-62
2021/12/19 00:43:33;;;;;;;1.67;1.43;;;;;;;1.17;82.35;99183.66;4973630;28;20270;-63
2021/12/19 00:46:06;;;;;;;3.27;2.20;;;;;;;0.67;82.25;99088.69;4973329;28;20468;-62
2021/12/19 00:48:32;;;;;;;2.53;1.73;;;;;;;1.26;82.10;99188.03;4973319;28;20813;-64
2021/12/19 00:50:57;;;;;;;1.80;1.70;;;;;;;1.24;82.34;99192.59;4973339;28;20293;-63
2021/12/19 00:53:23;;;;;;;3.57;2.07;;;;;;;1.14;82.44;99171.63;4973300;28;20065;-63
2021/12/19 00:55:48;;;;;;;3.13;1.80;;;;;;;1.05;83.10;99155.91;4973154;28;20133;-63
2021/12/19 00:58:14;;;;;;;2.40;2.20;;;;;;;1.10;82.70;99172.03;4973033;28;20043;-63
2021/12/19 01:00:40;;;;;;;2.47;1.53;;;;;;;1.13;82.80;99166.50;4972864;28;20437;-63
2021/12/19 01:03:06;;;;;;;3.13;2.37;;;;;;;1.10;82.99;99178.13;4973174;28;20039;-63
2021/12/19 01:05:35;;;;;;;2.50;2.10;;;;;;;1.09;82.86;99159.91;4973073;28;20458;-64
2021/12/19 01:08:02;;;;;;;2.97;2.08;;;;;;;1.00;83.00;99152.91;4973426;28;20281;-63
2021/12/19 01:10:28;;;;;;;2.67;2.20;;;;;;;1.05;83.35;99166.41;4973085;28;20039;-63
2021/12/19 01:12:54;;;;;;;2.03;1.70;;;;;;;1.05;83.13;99151.50;4973079;28;20762;-62
2021/12/19 01:15:20;;;;;;;2.30;2.10;;;;;;;1.04;83.36;99165.56;4973242;28;20269;-63
2021/12/19 01:17:46;;;;;;;2.47;1.70;;;;;;;1.01;83.33;99157.16;4973391;28;20035;-63
2021/12/19 01:20:25;;;;;;;1.70;1.60;;;;;;;1.00;83.58;99158.13;4973047;28;20313;-63
2021/12/19 01:22:51;;;;;;;;;;;;;;;0.99;83.61;99162.56;4973466;28;20443;-64
2021/12/19 01:25:16;;;;;;;2.00;1.50;;;;;;;1.01;83.71;99165.84;4972955;28;19924;-65
2021/12/19 01:28:08;;;;;;;1.87;1.67;;;;;;;1.03;83.63;99153.44;4959405;28;20054;-62
2021/12/19 01:30:34;;;;;;;1.63;1.53;;;;;;;1.01;83.25;99154.53;4955540;28;20301;-62
2021/12/19 01:33:00;;;;;;;3.93;1.70;;;;;;;1.06;83.49;99144.47;4972835;28;20662;-64
2021/12/19 01:35:26;;;;;;;2.57;1.77;;;;;;;1.07;83.10;99146.94;4972675;28;20277;-63
2021/12/19 01:37:53;;;;;;;1.87;1.70;;;;;;;1.08;83.12;99150.38;4972707;28;20038;-66
2021/12/19 01:40:20;;;;;;;2.40;1.60;;;;;;;1.11;83.11;99140.44;4973863;28;20048;-64
2021/12/19 01:42:48;;;;;;;1.40;1.30;;;;;;;1.09;82.81;99137.13;4976484;28;20337;-63
2021/12/19 01:45:22;;;;;;;2.37;2.07;;;;;;;1.00;82.91;99118.81;4976424;28;20270;-62
2021/12/19 01:47:49;;;;;;;2.00;1.90;;;;;;;1.12;82.54;99128.16;4976352;28;20285;-62
2021/12/19 01:50:15;;;;;;;2.67;2.47;;;;;;;1.00;82.92;99116.19;4976482;28;20458;-64
2021/12/19 01:52:40;;;;;;;5.70;2.27;;;;;;;0.84;82.96;99090.56;4976131;28;20388;-63
2021/12/19 01:55:06;;;;;;;2.00;1.90;;;;;;;1.02;83.07;99114.25;4976375;28;20414;-62
2021/12/19 01:57:32;;;;;;;2.83;2.00;;;;;;;1.01;83.30;99115.22;4976802;28;20113;-63
2021/12/19 01:59:57;;;;;;;2.47;2.10;;;;;;;0.99;83.36;99104.06;4976437;28;20046;-63
2021/12/19 02:02:23;;;;;;;4.17;2.27;;;;;;;1.02;83.43;99095.91;4976177;28;20027;-63
2021/12/19 02:04:48;;;;;;;2.53;1.90;;;;;;;0.85;83.05;99074.69;4976574;28;20038;-63
2021/12/19 02:07:15;;;;;;;2.47;1.80;;;;;;;0.99;83.68;99104.06;4976214;28;20081;-63
2021/12/19 02:09:42;;;;;;;1.93;1.70;;;;;;;0.98;83.70;99102.41;4976288;28;20042;-63
2021/12/19 02:12:09;;;;;;;1.77;1.57;;;;;;;1.00;83.69;99103.09;4976167;28;20309;-64
2021/12/19 02:14:35;;;;;;;2.03;1.60;;;;;;;0.97;83.91;99106.00;4975581;28;20301;-63
2021/12/19 02:17:01;;;;;;;2.70;2.50;;;;;;;0.95;83.90;99102.69;4976344;28;20270;-63
2021/12/19 02:19:30;;;;;;;1.73;1.63;;;;;;;0.91;84.18;99100.34;4975860;28;20278;-64
2021/12/19 02:21:56;;;;;;;1.60;1.50;;;;;;;1.00;83.68;99100.47;4976446;28;20035;-63
2021/12/19 02:24:21;;;;;;;2.80;1.80;;;;;;;0.92;83.88;99082.84;4975939;28;20422;-62
2021/12/19 02:26:47;;;;;;;1.73;1.50;;;;;;;0.98;83.84;99086.69;4975612;28;20042;-63
2021/12/19 02:29:14;;;;;;;1.80;1.60;;;;;;;1.00;83.64;99082.13;4975745;28;20050;-63
2021/12/19 02:31:40;;;;;;;9.97;2.13;;;;;;;1.03;84.00;99084.44;4974224;28;20391;-63
2021/12/19 02:34:23;;;;;;;3.97;1.53;;;;;;;1.00;84.22;99088.19;4975879;28;20281;-63
2021/12/19 02:37:02;;;;;;;3.33;2.23;;;;;;;1.02;83.93;99091.50;4975776;28;20058;-63
2021/12/19 02:50:25;;;;;;;1.43;1.33;;;;;;;0.97;83.79;99058.81;4976091;28;20793;-63
2021/12/19 02:52:52;;;;;;;2.47;2.07;;;;;;;0.98;83.90;99065.72;4974848;28;20286;-64
2021/12/19 02:55:18;;;;;;;1.80;1.57;;;;;;;0.99;83.30;99056.88;4975526;28;20266;-63
2021/12/19 02:57:45;;;;;;;1.70;1.60;;;;;;;0.93;83.66;99048.63;4975457;28;20764;-64
2021/12/19 03:00:14;;;;;;;2.77;1.97;;;;;;;0.99;83.79;99064.75;4975456;28;20270;-62
2021/12/19 03:02:40;;;;;;;;;;;;;;;1.03;83.49;99053.00;4975569;28;20761;-63
2021/12/19 03:05:06;;;;;;;1.70;1.60;;;;;;;0.99;83.45;99041.16;4974888;28;19965;-63
2021/12/19 03:07:32;;;;;;;3.87;1.70;;;;;;;0.96;83.37;99052.75;4975214;28;20039;-62
2021/12/19 03:10:22;;;;;;;1.60;1.50;;;;;;;0.95;82.98;99039.78;4975370;28;20324;-65
2021/12/19 03:18:12;;;;;;;5.97;2.90;;;;;;;1.02;83.01;99036.44;4974800;28;20141;-63
2021/12/19 03:20:39;;;;;;;2.70;1.40;;;;;;;1.00;82.86;99032.31;4973490;28;20282;-64
2021/12/19 03:23:06;;;;;;;1.70;1.60;;;;;;;0.96;82.62;99025.72;4975486;28;20381;-65
2021/12/19 03:25:32;;;;;;;2.20;1.80;;;;;;;1.01;82.97;99026.94;4973552;28;20258;-65
2021/12/19 03:28:00;;;;;;;2.30;2.10;;;;;;;1.02;83.51;99030.38;4974545;28;20361;-65
2021/12/19 03:30:26;;;;;;;2.80;1.97;;;;;;;1.01;83.41;99023.47;4974463;28;20278;-63
2021/12/19 03:32:52;;;;;;;1.60;1.50;;;;;;;0.93;82.71;99017.16;4973250;28;20345;-65
2021/12/19 03:35:18;;;;;;;1.87;1.73;;;;;;;0.97;83.13;99027.38;4974589;28;20274;-64
2021/12/19 03:37:44;;;;;;;1.43;1.30;;;;;;;0.74;82.96;98984.97;4974914;28;20039;-64
2021/12/19 03:40:13;;;;;;;1.73;1.63;;;;;;;0.93;82.74;99013.72;4974565;28;20263;-64
2021/12/19 03:42:41;;;;;;;1.55;1.45;;;;;;;0.97;83.01;99014.25;4974316;28;20062;-63
2021/12/19 03:45:10;;;;;;;1.58;1.35;;;;;;;0.95;82.76;99003.09;4973969;28;20046;-63
2021/12/19 03:47:37;;;;;;;2.10;1.80;;;;;;;0.94;82.89;98994.41;4974314;28;20038;-65
2021/12/19 03:50:07;;;;;;;1.50;1.40;;;;;;;0.83;82.58;98971.81;4974220;28;20274;-64
2021/12/19 03:52:34;;;;;;;1.67;1.37;;;;;;;0.97;82.33;98990.66;4974033;28;20297;-65
2021/12/19 03:54:59;;;;;;;1.50;1.40;;;;;;;1.02;82.47;98991.88;4974146;28;20286;-64
2021/12/19 03:57:25;;;;;;;2.73;2.27;;;;;;;1.03;82.69;98995.31;4974174;28;20271;-65
2021/12/19 03:59:50;;;;;;;3.43;1.70;;;;;;;1.05;82.00;98981.09;4989173;28;20038;-64
2021/12/19 04:02:35;;;;;;;1.50;1.40;;;;;;;0.96;82.10;98981.16;4973950;28;20034;-63
2021/12/19 04:05:00;;;;;;;2.73;1.40;;;;;;;0.91;82.28;98974.56;4974193;28;20487;-64
2021/12/19 04:07:27;;;;;;;3.40;1.87;;;;;;;0.96;81.95;98976.72;4974019;28;20293;-67
2021/12/19 04:09:53;;;;;;;1.50;1.30;;;;;;;1.00;81.88;98979.88;4973732;28;20039;-66
2021/12/19 04:12:21;;;;;;;1.90;1.40;;;;;;;0.92;81.73;98963.09;4972685;28;20298;-65
2021/12/19 04:14:46;;;;;;;2.42;1.63;;;;;;;1.02;81.81;98977.94;4973993;28;20065;-64
2021/12/19 04:17:12;;;;;;;1.87;1.40;;;;;;;0.98;81.80;98971.34;4973709;28;20073;-65
2021/12/19 04:19:37;;;;;;;2.07;1.50;;;;;;;1.04;81.71;98983.88;4973608;28;20034;-64
2021/12/19 04:22:04;;;;;;;2.27;2.07;;;;;;;0.91;82.18;98961.44;4973772;28;20078;-65
2021/12/19 04:24:29;;;;;;;2.03;1.73;;;;;;;0.98;81.82;98966.94;4973495;28;20034;-65
2021/12/19 04:26:55;;;;;;;1.40;1.23;;;;;;;0.97;81.54;98969.69;4973484;28;20282;-64
2021/12/19 04:29:23;;;;;;;1.87;1.30;;;;;;;1.00;82.01;98974.66;4973576;28;20062;-66
2021/12/19 04:31:49;;;;;;;1.40;1.30;;;;;;;0.94;81.87;98965.56;4973591;28;20561;-64
2021/12/19 04:34:17;;;;;;;2.53;2.03;;;;;;;0.96;82.03;98970.66;4973148;28;20137;-65
2021/12/19 04:36:46;;;;;;;3.10;1.50;;;;;;;1.03;81.77;98980.41;4973401;28;20309;-64
2021/12/19 04:55:15;;;;;;;1.13;1.02;;;;;;;1.10;81.32;98985.91;4973848;28;20121;-65
2021/12/19 05:00:11;;;;;;;1.50;1.40;;;;;;;1.11;81.80;98982.31;4973037;28;20110;-65
2021/12/19 05:15:45;;;;;;;3.83;2.10;;;;;;;0.62;84.45;99021.00;4974927;28;20269;-65
2021/12/19 05:18:11;;;;;;;2.10;1.90;;;;;;;0.40;83.34;99008.22;4976091;28;20634;-66
2021/12/19 05:20:42;;;;;;;1.70;1.60;;;;;;;0.33;83.13;99007.13;4977204;28;20294;-66
2021/12/19 05:23:21;;;;;;;1.80;1.50;;;;;;;0.23;82.09;99007.94;4977181;28;20031;-64
2021/12/19 05:25:46;;;;;;;;;;;;;;;0.26;82.62;99022.56;4977870;28;20358;-65
2021/12/19 05:28:11;;;;;;;1.70;1.60;;;;;;;0.16;82.60;99012.09;4976994;28;20450;-64
2021/12/19 05:30:38;;;;;;;2.90;1.40;;;;;;;-0.07;82.13;98979.31;4962620;28;20055;-65
2021/12/19 05:33:06;;;;;;;1.50;1.37;;;;;;;0.06;82.20;99008.66;4940395;29;20049;-63
2021/12/19 05:46:22;;;;;;;2.77;1.50;;;;;;;-0.06;83.13;99026.28;4957698;29;20337;-64
2021/12/19 05:48:47;;;;;;;1.30;1.20;;;;;;;-0.09;82.77;99007.41;4957616;29;20747;-65
2021/12/19 05:51:13;;;;;;;1.83;1.60;;;;;;;-0.07;82.49;99016.78;4957203;29;20047;-64
2021/12/19 05:53:39;;;;;;;1.50;1.40;;;;;;;-0.06;82.91;99023.66;4957148;29;20403;-64
2021/12/19 05:56:05;;;;;;;2.13;1.87;;;;;;;-0.06;82.45;99022.84;4956994;29;20133;-66
2021/12/19 05:58:30;;;;;;;1.60;1.50;;;;;;;-0.06;82.75;99036.75;4956818;29;20069;-64
2021/12/19 06:00:56;;;;;;;1.60;1.50;;;;;;;-0.13;83.29;99025.19;4957159;29;20046;-64
2021/12/19 06:03:22;;;;;;;1.70;1.60;;;;;;;-0.10;83.32;99037.16;4957489;29;20067;-65
2021/12/19 06:05:47;;;;;;;1.77;1.67;;;;;;;-0.09;83.68;99038.81;4957068;29;20039;-64
2021/12/19 06:08:13;;;;;;;1.60;1.50;;;;;;;0.00;83.68;99048.50;4957190;29;20121;-66
2021/12/19 06:10:38;;;;;;;2.60;1.60;;;;;;;-0.02;83.69;99045.97;4957005;29;20098;-65
2021/12/19 06:13:04;;;;;;;1.60;1.50;;;;;;;-0.03;84.02;99048.72;4939347;29;20078;-65
2021/12/19 06:15:30;;;;;;;2.33;2.13;;;;;;;-0.11;84.05;99040.75;4956528;29;20086;-65
2021/12/19 06:17:55;;;;;;;2.00;1.90;;;;;;;-0.07;84.07;99049.97;4956802;29;20066;-63
2021/12/19 06:20:24;;;;;;;1.70;1.60;;;;;;;-0.11;84.05;99040.75;4956856;29;20035;-62
2021/12/19 06:22:50;;;;;;;2.93;1.80;;;;;;;-0.16;84.16;99040.34;4956466;29;20106;-61
2021/12/19 06:25:16;;;;;;;3.80;1.77;;;;;;;-0.18;84.17;99050.13;4956644;29;20766;-62
2021/12/19 06:27:42;;;;;;;2.27;1.70;;;;;;;-0.17;82.86;99062.22;4955571;28;20267;-63
2021/12/19 06:30:09;;;;;;;1.90;1.80;;;;;;;-0.31;82.93;99066.88;4965640;28;20074;-64
2021/12/19 06:32:35;;;;;;;1.87;1.70;;;;;;;-0.64;83.90;99035.84;4975959;28;20055;-63
2021/12/19 06:35:07;;;;;;;2.30;2.10;;;;;;;-0.36;84.72;99069.06;4975999;28;20282;-65
2021/12/19 06:37:37;;;;;;;1.80;1.70;;;;;;;-0.35;82.65;99065.50;4975396;28;20272;-62
2021/12/19 06:40:06;;;;;;;1.70;1.47;;;;;;;-0.39;82.18;99058.88;4975767;28;20295;-66
2021/12/19 06:42:32;;;;;;;1.88;1.70;;;;;;;-0.31;82.44;99064.25;4975510;28;20266;-63
2021/12/19 06:44:57;;;;;;;2.43;1.40;;;;;;;-0.26;81.73;99065.66;4975617;28;20152;-67
2021/12/19 06:47:23;;;;;;;1.50;1.40;;;;;;;-0.44;81.24;99044.56;4974223;28;20037;-62
2021/12/19 06:49:48;;;;;;;2.80;1.77;;;;;;;-0.22;81.05;99080.13;4975813;28;20074;-63
2021/12/19 06:52:14;;;;;;;1.60;1.50;;;;;;;-0.26;81.06;99078.75;4975467;28;20042;-63
2021/12/19 06:54:40;;;;;;;1.50;1.40;;;;;;;-0.48;81.72;99070.16;4975277;28;20065;-68
2021/12/19 06:57:05;;;;;;;1.90;1.70;;;;;;;-0.48;82.12;99082.41;4975011;28;20027;-66
2021/12/19 06:59:31;;;;;;;1.97;1.77;;;;;;;-0.46;82.71;99094.38;4974907;28;20099;-66
2021/12/19 07:01:56;;;;;;;2.47;1.40;;;;;;;-0.45;83.36;99103.88;4975032;28;20042;-67
2021/12/19 07:04:22;;;;;;;2.60;1.40;;;;;;;-0.43;82.90;99119.44;4975058;28;20386;-64
2021/12/19 07:06:47;;;;;;;1.40;1.30;;;;;;;-0.51;81.79;99117.50;4975368;28;20081;-63
2021/12/19 07:09:13;;;;;;;2.73;1.60;;;;;;;-0.59;80.86;99125.16;4974881;28;20043;-63
2021/12/19 07:11:38;;;;;;;1.40;1.30;;;;;;;-0.65;81.02;99117.84;4974749;28;20453;-63
2021/12/19 07:14:04;;;;;;;2.03;1.83;;;;;;;-0.67;80.34;99123.22;4975032;28;20035;-64
2021/12/19 07:16:30;;;;;;;1.40;1.30;;;;;;;-0.67;79.98;99122.38;4973960;28;20043;-64
2021/12/19 07:18:56;;;;;;;1.50;1.40;;;;;;;-0.63;80.72;99134.22;4974208;28;20630;-64
2021/12/19 07:21:23;;;;;;;1.50;1.40;;;;;;;-0.56;80.61;99140.59;4974733;28;20486;-64
2021/12/19 07:23:49;;;;;;;2.67;1.40;;;;;;;-0.58;79.86;99137.28;4974530;28;20042;-62
2021/12/19 07:26:15;;;;;;;3.23;1.50;;;;;;;-0.65;79.59;99146.59;4974570;28;20270;-64
2021/12/19 07:28:43;;;;;;;2.00;1.80;;;;;;;-0.71;79.09;99142.72;4974423;28;20038;-65
2021/12/19 07:31:10;;;;;;;1.52;1.40;;;;;;;-0.79;79.26;99139.94;4974963;28;20101;-63
2021/12/19 07:33:35;;;;;;;1.87;1.60;;;;;;;-0.86;79.58;99138.81;4974396;28;20102;-64
2021/12/19 07:36:02;;;;;;;2.90;2.10;;;;;;;-0.83;79.36;99142.97;4974572;28;20314;-65
2021/12/19 07:38:40;;;;;;;2.27;1.80;;;;;;;-0.73;79.49;99159.50;4974009;28;20301;-61
2021/12/19 07:41:05;;;;;;;3.30;2.37;;;;;;;-0.79;79.42;99146.97;4974567;28;20559;-66
2021/12/19 07:43:31;;;;;;;2.00;1.90;;;;;;;-0.80;79.67;99153.16;4974633;28;20282;-69
2021/12/19 07:45:57;;;;;;;1.53;1.43;;;;;;;-0.78;79.80;99166.91;4974768;28;20041;-67
2021/12/19 07:48:23;;;;;;;2.00;1.90;;;;;;;-0.85;79.97;99160.56;4957374;28;20038;-61
2021/12/19 07:50:48;;;;;;;2.10;1.90;;;;;;;-0.83;80.17;99169.09;4973900;28;20035;-62
2021/12/19 07:53:14;;;;;;;2.33;1.90;;;;;;;-0.99;80.21;99157.28;4972606;28;20266;-64
2021/12/19 07:55:39;;;;;;;2.20;1.97;;;;;;;-0.91;80.82;99176.72;4973349;28;20070;-64
2021/12/19 07:58:05;;;;;;;2.97;2.13;;;;;;;-0.93;80.77;99175.06;4974252;28;20134;-62
2021/12/19 08:00:31;;;;;;;2.03;1.80;;;;;;;-0.95;80.10;99178.78;4972888;28;20046;-63
2021/12/19 08:02:57;;;;;;;2.20;2.00;;;;;;;-1.02;79.45;99162.78;4972913;28;20034;-63
2021/12/19 08:05:22;;;;;;;2.40;2.20;;;;;;;-1.16;79.14;99168.31;4972805;28;20101;-64
2021/12/19 08:07:54;;;;;;;2.50;2.20;;;;;;;-1.10;79.96;99185.28;4972367;28;20530;-64
2021/12/19 08:12:48;;;;;;;2.05;1.88;;;;;;;-1.00;79.91;99194.00;4973215;28;20401;-64
2021/12/19 08:15:15;;;;;;;2.07;1.87;;;;;;;-1.01;79.78;99192.34;4973385;28;20125;-63
2021/12/19 08:17:40;;;;;;;2.40;2.20;;;;;;;-1.14;79.39;99166.44;4973625;28;20041;-64
2021/12/19 08:20:09;;;;;;;2.93;2.60;;;;;;;-0.91;79.21;99208.09;4973398;28;20349;-64
2021/12/19 08:22:35;;;;;;;2.30;2.10;;;;;;;-1.07;79.56;99167.56;4973426;28;20486;-61
2021/12/19 08:25:02;;;;;;;2.63;2.43;;;;;;;-0.98;79.64;99177.25;4973736;28;20078;-62
2021/12/19 08:27:28;;;;;;;3.17;2.87;;;;;;;-0.85;79.55;99205.00;4973554;28;20274;-62
2021/12/19 08:29:55;;;;;;;2.60;2.40;;;;;;;-0.84;79.70;99209.25;4973220;28;20282;-62
2021/12/19 08:32:23;;;;;;;2.67;2.43;;;;;;;-0.95;80.44;99212.75;4973054;28;20133;-63
2021/12/19 08:34:49;;;;;;;2.63;2.42;;;;;;;-1.07;79.76;99201.53;4972053;28;20270;-63
2021/12/19 08:37:17;;;;;;;2.73;2.37;;;;;;;-1.09;79.75;99198.22;4973662;28;20034;-63
2021/12/19 08:39:44;;;;;;;3.80;2.67;;;;;;;-0.98;79.41;99218.22;4973113;28;20301;-61
2021/12/19 08:42:10;;;;;;;2.53;2.27;;;;;;;-1.12;79.21;99203.69;4973021;28;20313;-66
2021/12/19 08:44:36;;;;;;;2.73;2.50;;;;;;;-1.09;78.89;99215.69;4973116;28;20765;-63
2021/12/19 08:47:03;;;;;;;4.07;2.33;;;;;;;-1.18;78.39;99219.84;4973186;28;20832;-64
2021/12/19 08:49:28;;;;;;;2.60;2.40;;;;;;;-1.05;78.05;99228.38;4972789;28;20341;-63
2021/12/19 08:51:54;;;;;;;2.63;2.20;;;;;;;-1.04;76.99;99229.19;4972884;28;20396;-62
2021/12/19 08:54:21;;;;;;;2.73;2.53;;;;;;;-1.12;77.81;99237.66;4973240;28;20039;-64
2021/12/19 08:56:47;;;;;;;2.30;2.03;;;;;;;-1.14;77.96;99244.81;4973137;28;20141;-64
2021/12/19 08:59:12;;;;;;;4.53;2.67;;;;;;;-1.12;77.86;99248.13;4972901;28;20417;-63
2021/12/19 09:01:38;;;;;;;2.53;2.33;;;;;;;-1.12;78.46;99244.69;4973221;28;20069;-64
2021/12/19 09:04:04;;;;;;;4.00;3.60;;;;;;;-1.10;79.35;99240.97;4973352;28;20375;-62
2021/12/19 09:06:29;;;;;;;6.03;3.23;;;;;;;-1.15;80.00;99239.72;4972870;28;20039;-63
2021/12/19 09:08:55;;;;;;;3.23;2.93;;;;;;;-1.13;80.35;99256.09;4973411;28;20685;-63
2021/12/19 09:11:21;;;;;;;3.43;3.00;;;;;;;-1.14;80.39;99255.25;4955959;28;20050;-64
2021/12/19 09:13:46;;;;;;;2.60;2.40;;;;;;;-1.14;79.60;99254.44;4973279;28;20066;-64
2021/12/19 09:16:12;;;;;;;2.77;2.40;;;;;;;-1.20;79.06;99250.50;4955938;28;20282;-64
2021/12/19 09:18:38;;;;;;;3.10;2.80;;;;;;;-1.14;78.90;99255.25;4972856;28;20039;-63
2021/12/19 09:21:03;;;;;;;3.73;3.43;;;;;;;-1.10;78.56;99253.22;4973100;28;20041;-65
2021/12/19 09:23:29;;;;;;;3.03;2.73;;;;;;;-1.01;78.42;99255.91;4973069;28;20514;-63
2021/12/19 09:25:55;;;;;;;3.03;2.73;;;;;;;-0.87;77.74;99273.03;4973058;28;20043;-62
2021/12/19 09:28:20;;;;;;;2.40;2.20;;;;;;;-0.83;77.13;99264.00;4973158;28;20042;-62
2021/12/19 09:30:48;;;;;;;2.70;2.50;;;;;;;-0.90;76.89;99262.84;4973257;28;20532;-75
2021/12/19 09:33:38;;;;;;;2.90;2.70;;;;;;;-0.98;77.02;99271.31;4972960;28;20474;-65
2021/12/19 09:36:04;;;;;;;3.10;2.60;;;;;;;-0.98;76.68;99267.88;4973220;28;20377;-69
2021/12/19 09:38:31;;;;;;;3.03;2.83;;;;;;;-1.01;76.32;99265.50;4973562;28;20054;-73
2021/12/19 09:41:11;;;;;;;3.13;2.83;;;;;;;-0.93;76.14;99271.75;4973400;28;20754;-71
2021/12/19 09:43:43;;;;;;;3.50;2.70;;;;;;;-0.93;77.11;99277.00;4973752;28;20038;-75
2021/12/19 09:46:14;;;;;;;2.93;2.63;;;;;;;-1.02;76.65;99251.63;4973085;28;20270;-65
2021/12/19 09:48:41;;;;;;;2.67;2.47;;;;;;;-0.99;76.61;99261.00;4972965;28;20270;-64
2021/12/19 09:51:10;;;;;;;2.70;2.50;;;;;;;-0.99;75.99;99264.44;4972375;28;20298;-68
2021/12/19 09:53:37;;;;;;;5.93;2.50;;;;;;;-1.26;76.27;99224.88;4972656;28;20293;-61
2021/12/19 09:56:03;;;;;;;3.30;1.87;;;;;;;-1.01;76.66;99265.50;4972462;28;20038;-64
2021/12/19 09:58:34;;;;;;;2.37;2.10;;;;;;;-0.89;77.43;99271.50;4972780;28;20638;-65
2021/12/19 10:01:02;;;;;;;2.63;2.43;;;;;;;-0.95;77.45;99265.00;4973009;28;20262;-68
2021/12/19 10:03:28;;;;;;;2.30;2.05;;;;;;;-0.86;77.28;99276.50;4976033;28;20330;-63
2021/12/19 10:06:16;;;;;;;2.80;2.60;;;;;;;-0.99;77.78;99258.38;4976086;28;20070;-63
2021/12/19 10:08:42;;;;;;;2.88;2.55;;;;;;;-0.93;77.24;99268.31;4975928;28;20031;-65
2021/12/19 10:11:32;;;;;;;4.07;2.67;;;;;;;-1.05;76.92;99241.44;4976257;28;20050;-60
2021/12/19 10:13:58;;;;;;;2.70;2.50;;;;;;;-0.83;76.80;99271.84;4976501;28;20321;-63
2021/12/19 10:16:27;;;;;;;2.50;2.30;;;;;;;-0.81;76.97;99290.84;4975841;28;20378;-64
2021/12/19 10:18:55;;;;;;;2.47;2.13;;;;;;;-0.89;75.40;99287.19;4976653;28;20312;-63
2021/12/19 10:21:21;;;;;;;2.72;2.17;;;;;;;-1.04;76.31;99279.66;4959332;28;20050;-64
2021/12/19 10:23:49;;;;;;;2.40;2.20;;;;;;;-1.00;76.56;99294.13;4976282;28;20035;-63
2021/12/19 10:26:15;;;;;;;2.70;1.93;;;;;;;-1.01;75.22;99302.94;4976079;28;20270;-62
2021/12/19 10:28:53;;;;;;;1.90;1.80;;;;;;;-1.22;75.00;99293.38;4974275;28;20281;-67
2021/12/19 10:31:25;;;;;;;1.85;1.75;;;;;;;-1.17;75.74;99306.91;4975268;28;20054;-62
2021/12/19 10:33:52;;;;;;;2.67;2.47;;;;;;;-1.18;75.33;99316.50;4975640;28;20085;-62
2021/12/19 10:36:19;;;;;;;2.10;2.00;;;;;;;-1.10;75.91;99319.34;4958066;28;20313;-60
2021/12/19 10:39:15;;;;;;;2.37;2.00;;;;;;;-1.15;76.11;99321.53;4975815;28;20277;-62
2021/12/19 10:41:42;;;;;;;2.83;2.33;;;;;;;-1.06;76.02;99326.00;4976732;28;20302;-61
2021/12/19 10:45:29;;;;;;;2.23;2.00;;;;;;;-1.25;75.59;99310.97;4975632;28;20357;-62
2021/12/19 10:47:17;;;;;;;2.00;1.90;;;;;;;-1.17;75.68;99339.06;4975388;28;20270;-67
2021/12/19 10:49:42;;;;;;;2.00;1.77;;;;;;;-1.18;76.48;99336.59;4974194;28;20073;-66
2021/12/19 10:52:08;;;;;;;2.30;2.10;;;;;;;-1.19;76.26;99329.69;4975032;28;20294;-63
2021/12/19 10:54:35;;;;;;;2.00;1.90;;;;;;;-1.18;76.46;99334.81;4975441;28;20130;-67
2021/12/19 10:57:12;;;;;;;2.53;2.23;;;;;;;-1.32;76.49;99329.84;4974530;28;20027;-66
2021/12/19 10:59:38;;;;;;;1.93;1.80;;;;;;;-1.31;77.84;99347.19;4972122;28;20282;-67
2021/12/19 11:02:04;;;;;;;2.57;2.10;;;;;;;-1.44;77.55;99330.84;4957295;28;20278;-69
2021/12/19 11:04:35;;;;;;;2.00;1.83;;;;;;;-1.37;76.94;99363.34;4973541;28;20050;-65
2021/12/19 11:07:02;;;;;;;1.83;1.73;;;;;;;-1.43;76.76;99346.41;4974639;28;20043;-65
2021/12/19 11:09:36;;;;;;;2.10;1.70;;;;;;;-1.45;76.73;99350.03;4975914;28;20278;-69
2021/12/19 11:12:11;;;;;;;2.13;1.93;;;;;;;-1.39;76.05;99375.69;4958046;28;20887;-66
2021/12/19 11:14:47;;;;;;;1.87;1.73;;;;;;;-1.37;76.46;99365.97;4974828;28;20282;-66
2021/12/19 11:17:23;;;;;;;1.73;1.63;;;;;;;-1.35;75.54;99359.66;4975382;28;20266;-66
2021/12/19 11:19:51;;;;;;;2.33;1.90;;;;;;;-1.40;75.06;99366.22;4957978;28;20274;-64
2021/12/19 11:22:23;;;;;;;4.13;2.47;;;;;;;-1.42;75.92;99362.88;4957801;28;20361;-68
2021/12/19 11:24:55;;;;;;;1.70;1.60;;;;;;;-1.75;75.55;99330.63;4975140;28;20317;-67
2021/12/19 11:27:21;;;;;;;1.80;1.70;;;;;;;-1.54;74.66;99375.09;4975741;28;20258;-64
2021/12/19 11:29:51;;;;;;;1.90;1.67;;;;;;;-1.50;75.55;99380.91;4976567;28;20340;-66
2021/12/19 11:32:24;;;;;;;2.57;1.70;;;;;;;-1.56;76.27;99375.22;4975921;28;20317;-67
2021/12/19 11:34:56;;;;;;;1.95;1.80;;;;;;;-1.50;75.73;99381.75;4974591;28;20314;-67
2021/12/19 11:38:08;;;;;;;1.93;1.83;;;;;;;-1.46;75.21;99379.72;4975573;28;20041;-66
2021/12/19 11:40:37;;;;;;;1.90;1.80;;;;;;;-1.51;75.70;99395.75;4932669;28;20348;-66
2021/12/19 11:43:09;;;;;;;1.60;1.50;;;;;;;-1.49;75.16;99393.84;4975302;28;20738;-66
2021/12/19 11:45:53;;;;;;;2.77;2.40;;;;;;;-1.52;74.35;99382.81;4975251;28;20277;-69
2021/12/19 11:48:34;;;;;;;1.90;1.80;;;;;;;-1.56;74.46;99372.63;4975081;28;20285;-67
2021/12/19 11:51:07;;;;;;;2.20;2.00;;;;;;;-1.49;74.87;99406.06;4975164;28;20262;-69
2021/12/19 11:53:39;;;;;;;1.80;1.70;;;;;;;-1.58;74.58;99402.41;4957275;28;20361;-68
2021/12/19 11:56:11;;;;;;;1.77;1.67;;;;;;;-1.68;74.31;99410.13;4974438;28;20289;-67
2021/12/19 11:58:36;;;;;;;1.70;1.60;;;;;;;-1.79;74.07;99415.31;4957223;28;20611;-72
2021/12/19 12:01:09;;;;;;;1.57;1.47;;;;;;;-1.83;74.41;99413.91;4956682;28;20293;-71
2021/12/19 12:03:47;;;;;;;1.80;1.70;;;;;;;-1.97;74.79;99408.91;4974351;28;20077;-68
2021/12/19 12:06:21;;;;;;;1.60;1.50;;;;;;;-1.93;74.95;99434.66;4973552;28;20360;-68
2021/12/19 12:09:21;;;;;;;2.43;1.93;;;;;;;-2.01;75.62;99425.75;4973941;28;20042;-70
2021/12/19 12:12:20;;;;;;;1.83;1.73;;;;;;;-1.85;76.11;99436.66;4957525;28;20297;-66
2021/12/19 12:14:57;;;;;;;1.93;1.83;;;;;;;-1.78;75.42;99426.59;4973575;28;20270;-69
2021/12/19 12:17:58;;;;;;;1.90;1.70;;;;;;;-1.76;74.57;99441.19;4974810;28;20274;-69
2021/12/19 12:20:32;;;;;;;2.40;1.70;;;;;;;-1.97;74.81;99454.09;4957349;28;20285;-74
2021/12/19 12:23:10;;;;;;;1.80;1.70;;;;;;;-2.10;75.23;99460.31;4957869;28;20642;-70
2021/12/19 12:25:43;;;;;;;2.03;1.83;;;;;;;-2.15;75.44;99455.44;4956599;28;20034;-71
2021/12/19 12:28:20;;;;;;;1.70;1.60;;;;;;;-2.29;74.64;99461.72;4945017;28;20041;-68
2021/12/19 12:31:00;;;;;;;2.67;2.45;;;;;;;-2.22;75.35;99468.13;4958362;28;20047;-71
2021/12/19 12:33:28;;;;;;;1.77;1.67;;;;;;;-2.37;75.05;99458.81;4958662;28;20106;-67
2021/12/19 12:35:58;;;;;;;2.00;1.85;;;;;;;-2.26;74.43;99477.13;4974230;28;20406;-66
2021/12/19 12:38:25;;;;;;;2.33;1.97;;;;;;;-2.32;74.75;99468.91;4973541;28;20031;-67
2021/12/19 12:41:00;;;;;;;3.10;2.03;;;;;;;-2.26;75.16;99469.31;4973390;28;20046;-69
2021/12/19 12:43:31;;;;;;;1.90;1.80;;;;;;;-2.16;74.42;99482.47;4973736;28;20050;-67
2021/12/19 12:46:07;;;;;;;2.28;2.08;;;;;;;-2.13;74.04;99491.84;4973258;28;20324;-68
2021/12/19 12:48:38;;;;;;;2.15;1.95;;;;;;;-2.15;74.81;99488.53;4973606;28;20041;-69
2021/12/19 12:51:10;;;;;;;2.40;2.20;;;;;;;-2.42;74.70;99453.09;4955895;28;20043;-67